Flight Track Log - Related Links

Times and Time Zones

All times are in EDT time to prevent confusion due to time zone crossing. See the N53NW flight status page for this flight to view local times or setup timezone preferences in your user account.

Time Position Orientation Groundspeed Altitude Reporting Facility
EDT Latitude Longitude Course Direction KTS MPH feet Rate Location/Type
Sun 02:07:30 PM 42.1000 -87.8500 31° Northeast 253 291 2,600  Level Chicago TRACON
Sun 02:08:58 PM 42.1792 -87.7867 31° Northeast 247 284 5,700 2,840 Climbing Chicago Center
Sun 02:10:00 PM 42.2086 -87.6750 70° East 266 306 9,700 2,565 Climbing Chicago Center
Sun 02:11:02 PM 42.2225 -87.5678 80° East 282 325 11,000 629 Climbing Chicago Center
Sun 02:12:04 PM 42.2361 -87.4506 81° East 305 351 11,000  Level Chicago Center
Sun 02:13:06 PM 42.2500 -87.3339 81° East 314 361 11,000  Level Chicago Center
Sun 02:14:08 PM 42.2617 -87.2186 82° East 314 361 11,000  Level Chicago Center
Sun 02:15:10 PM 42.2781 -87.0811 81° East 311 358 11,000  Level Chicago Center
Sun 02:16:13 PM 42.3208 -86.9814 60° Northeast 312 359 11,000  Level Chicago Center
Sun 02:17:15 PM 42.3681 -86.8856 56° Northeast 309 356 11,000 -145 Level Chicago Center
Sun 02:18:17 PM 42.4153 -86.7872 57° Northeast 310 357 10,700 -532 Descending Chicago Center
Sun 02:19:19 PM 42.4653 -86.6878 56° Northeast 317 365 9,900 -871 Descending Chicago Center
Sun 02:20:21 PM 42.5139 -86.5864 57° Northeast 323 372 8,900 -1,258 Descending Chicago Center
Sun 02:21:23 PM 42.5708 -86.4689 57° Northeast 313 360 7,300 -1,694 Descending Chicago Center
Sun 02:22:25 PM 42.6131 -86.3817 57° Northeast 287 330 5,400 -1,548 Descending Chicago Center
Sun 02:23:27 PM 42.6519 -86.2975 58° Northeast 269 310 4,100 -677 Descending Chicago Center
Sun 02:24:29 PM 42.6694 -86.1986 76° East 269 310 4,000 -145 Descending Chicago Center
Sun 02:25:31 PM 42.6869 -86.1139 74° East 248 285 3,800 -194 Descending Chicago Center
Sun 02:27:00 PM 42.7333 -86.1000 48° Northeast  Level FlightAware Approximate
Sun 02:34:00 PM 42.7428 -86.1078 48° Northeast  Level Estimated

Login

Don't have an account? Register now (free) for customized features, flight alerts, and more!